sensor_id;sensor_type;location;lat;lon;timestamp;pressure;altitude;pressure_sealevel;temperature;humidity
69766;BME280;57039;48.014;21.384;2023-12-20T00:00:41;100853.16;;;1.24;100.00
69766;BME280;57039;48.014;21.384;2023-12-20T00:01:44;100853.09;;;1.30;100.00
69766;BME280;57039;48.014;21.384;2023-12-20T00:02:48;100842.97;;;1.11;100.00
69766;BME280;57039;48.014;21.384;2023-12-20T00:03:50;100831.81;;;1.06;100.00
69766;BME280;57039;48.014;21.384;2023-12-20T00:04:53;100799.31;;;0.85;100.00
69766;BME280;57039;48.014;21.384;2023-12-20T00:05:56;100835.19;;;1.13;100.00
69766;BME280;57039;48.014;21.384;2023-12-20T00:07:01;100835.25;;;1.07;100.00
69766;BME280;57039;48.014;21.384;2023-12-20T00:08:04;100830.03;;;1.11;100.00
69766;BME280;57039;48.014;21.384;2023-12-20T00:09:09;100834.31;;;1.12;100.00
69766;BME280;57039;48.014;21.384;2023-12-20T00:10:12;100815.41;;;1.10;100.00
69766;BME280;57039;48.014;21.384;2023-12-20T00:11:15;100826.50;;;1.19;100.00
69766;BME280;57039;48.014;21.384;2023-12-20T00:12:18;100825.72;;;1.10;100.00
69766;BME280;57039;48.014;21.384;2023-12-20T00:13:21;100822.22;;;1.18;100.00
69766;BME280;57039;48.014;21.384;2023-12-20T00:14:24;100817.22;;;1.02;100.00
69766;BME280;57039;48.014;21.384;2023-12-20T00:15:27;100824.88;;;1.11;100.00
69766;BME280;57039;48.014;21.384;2023-12-20T00:16:30;100821.34;;;1.20;100.00
69766;BME280;57039;48.014;21.384;2023-12-20T00:17:34;100822.06;;;1.30;100.00
69766;BME280;57039;48.014;21.384;2023-12-20T00:18:37;100827.25;;;1.30;100.00
69766;BME280;57039;48.014;21.384;2023-12-20T00:19:40;100816.16;;;1.19;100.00
69766;BME280;57039;48.014;21.384;2023-12-20T00:20:43;100815.16;;;1.30;100.00
69766;BME280;57039;48.014;21.384;2023-12-20T00:21:46;100814.31;;;1.30;100.00
69766;BME280;57039;48.014;21.384;2023-12-20T00:22:50;100808.53;;;1.09;100.00
69766;BME280;57039;48.014;21.384;2023-12-20T00:23:53;100785.28;;;1.09;100.00
69766;BME280;57039;48.014;21.384;2023-12-20T00:24:56;100810.00;;;1.32;100.00
69766;BME280;57039;48.014;21.384;2023-12-20T00:25:59;100805.63;;;1.35;100.00
69766;BME280;57039;48.014;21.384;2023-12-20T00:27:01;100808.38;;;1.22;100.00
69766;BME280;57039;48.014;21.384;2023-12-20T00:28:05;100808.22;;;1.34;100.00
69766;BME280;57039;48.014;21.384;2023-12-20T00:29:08;100803.06;;;1.35;100.00
69766;BME280;57039;48.014;21.384;2023-12-20T00:30:11;100796.13;;;1.39;100.00
69766;BME280;57039;48.014;21.384;2023-12-20T00:31:14;100792.69;;;1.39;100.00
69766;BME280;57039;48.014;21.384;2023-12-20T00:32:17;100791.03;;;1.33;100.00
69766;BME280;57039;48.014;21.384;2023-12-20T00:33:21;100785.97;;;1.24;100.00
69766;BME280;57039;48.014;21.384;2023-12-20T00:34:24;100788.47;;;1.28;100.00
69766;BME280;57039;48.014;21.384;2023-12-20T00:35:27;100780.72;;;1.30;100.00
69766;BME280;57039;48.014;21.384;2023-12-20T00:36:30;100771.16;;;1.36;100.00
69766;BME280;57039;48.014;21.384;2023-12-20T00:37:32;100779.81;;;1.34;100.00
69766;BME280;57039;48.014;21.384;2023-12-20T00:38:35;100785.91;;;1.30;100.00
69766;BME280;57039;48.014;21.384;2023-12-20T00:39:38;100775.50;;;1.33;100.00
69766;BME280;57039;48.014;21.384;2023-12-20T00:40:41;100777.13;;;1.40;100.00
69766;BME280;57039;48.014;21.384;2023-12-20T00:41:44;100720.69;;;1.09;100.00
69766;BME280;57039;48.014;21.384;2023-12-20T00:42:47;100772.81;;;1.41;100.00
69766;BME280;57039;48.014;21.384;2023-12-20T00:43:51;100765.84;;;1.47;100.00
69766;BME280;57039;48.014;21.384;2023-12-20T00:44:54;100756.41;;;1.43;100.00
69766;BME280;57039;48.014;21.384;2023-12-20T00:45:57;100709.50;;;1.09;100.00
69766;BME280;57039;48.014;21.384;2023-12-20T00:46:59;100719.75;;;1.13;100.00
69766;BME280;57039;48.014;21.384;2023-12-20T00:48:03;100748.91;;;1.25;100.00
69766;BME280;57039;48.014;21.384;2023-12-20T00:49:06;100748.87;;;1.28;100.00
69766;BME280;57039;48.014;21.384;2023-12-20T00:50:09;100745.47;;;1.24;100.00
69766;BME280;57039;48.014;21.384;2023-12-20T00:51:12;100749.88;;;1.18;100.00
69766;BME280;57039;48.014;21.384;2023-12-20T00:52:15;100750.91;;;1.01;100.00
69766;BME280;57039;48.014;21.384;2023-12-20T00:53:20;100752.69;;;0.99;100.00
69766;BME280;57039;48.014;21.384;2023-12-20T00:54:23;100751.69;;;1.09;100.00
69766;BME280;57039;48.014;21.384;2023-12-20T00:55:25;100746.41;;;1.19;100.00
69766;BME280;57039;48.014;21.384;2023-12-20T00:56:28;100746.38;;;1.23;100.00
69766;BME280;57039;48.014;21.384;2023-12-20T00:57:31;100744.59;;;1.27;100.00
69766;BME280;57039;48.014;21.384;2023-12-20T00:58:34;100706.97;;;1.04;100.00
69766;BME280;57039;48.014;21.384;2023-12-20T00:59:37;100741.97;;;1.28;100.00
69766;BME280;57039;48.014;21.384;2023-12-20T01:00:40;100749.72;;;1.30;100.00
69766;BME280;57039;48.014;21.384;2023-12-20T01:01:46;100731.63;;;1.28;100.00
69766;BME280;57039;48.014;21.384;2023-12-20T01:02:49;100742.81;;;1.30;100.00
69766;BME280;57039;48.014;21.384;2023-12-20T01:03:54;100733.34;;;1.29;100.00
69766;BME280;57039;48.014;21.384;2023-12-20T01:04:58;100735.84;;;1.35;100.00
69766;BME280;57039;48.014;21.384;2023-12-20T01:06:01;100734.12;;;1.36;100.00
69766;BME280;57039;48.014;21.384;2023-12-20T01:07:04;100730.59;;;1.40;100.00
69766;BME280;57039;48.014;21.384;2023-12-20T01:08:07;100728.91;;;1.37;100.00
69766;BME280;57039;48.014;21.384;2023-12-20T01:09:10;100731.53;;;1.36;100.00
69766;BME280;57039;48.014;21.384;2023-12-20T01:10:13;100727.22;;;1.36;100.00
69766;BME280;57039;48.014;21.384;2023-12-20T01:11:16;100732.34;;;1.40;100.00
69766;BME280;57039;48.014;21.384;2023-12-20T01:12:19;100734.03;;;1.44;100.00
69766;BME280;57039;48.014;21.384;2023-12-20T01:13:22;100737.03;;;1.11;100.00
69766;BME280;57039;48.014;21.384;2023-12-20T01:14:25;100733.78;;;0.94;100.00
69766;BME280;57039;48.014;21.384;2023-12-20T01:15:28;100736.50;;;0.85;100.00
69766;BME280;57039;48.014;21.384;2023-12-20T01:16:31;100730.22;;;1.06;100.00
69766;BME280;57039;48.014;21.384;2023-12-20T01:17:34;100720.69;;;1.09;100.00
69766;BME280;57039;48.014;21.384;2023-12-20T01:18:37;100724.13;;;1.11;100.00
69766;BME280;57039;48.014;21.384;2023-12-20T01:19:41;100720.59;;;1.16;100.00
69766;BME280;57039;48.014;21.384;2023-12-20T01:20:44;100719.81;;;1.12;100.00
69766;BME280;57039;48.014;21.384;2023-12-20T01:21:47;100693.50;;;0.81;100.00
69766;BME280;57039;48.014;21.384;2023-12-20T01:22:50;100709.62;;;1.00;100.00
69766;BME280;57039;48.014;21.384;2023-12-20T01:23:53;100713.91;;;1.02;100.00
69766;BME280;57039;48.014;21.384;2023-12-20T01:24:56;100709.81;;;0.83;100.00
69766;BME280;57039;48.014;21.384;2023-12-20T01:25:59;100711.50;;;0.85;100.00
69766;BME280;57039;48.014;21.384;2023-12-20T01:27:02;100700.16;;;0.99;100.00
69766;BME280;57039;48.014;21.384;2023-12-20T01:28:05;100704.34;;;1.09;100.00
69766;BME280;57039;48.014;21.384;2023-12-20T01:29:09;100708.50;;;1.19;100.00
69766;BME280;57039;48.014;21.384;2023-12-20T01:30:12;100702.47;;;1.19;100.00
69766;BME280;57039;48.014;21.384;2023-12-20T01:31:15;100664.94;;;0.93;100.00
69766;BME280;57039;48.014;21.384;2023-12-20T01:32:18;100705.88;;;1.24;100.00
69766;BME280;57039;48.014;21.384;2023-12-20T01:33:21;100685.28;;;1.18;100.00
69766;BME280;57039;48.014;21.384;2023-12-20T01:34:24;100701.47;;;1.32;100.00
69766;BME280;57039;48.014;21.384;2023-12-20T01:35:27;100697.22;;;1.25;100.00
69766;BME280;57039;48.014;21.384;2023-12-20T01:36:30;100708.56;;;1.14;100.00
69766;BME280;57039;48.014;21.384;2023-12-20T01:37:33;100706.94;;;1.07;100.00
69766;BME280;57039;48.014;21.384;2023-12-20T01:38:36;100712.28;;;0.94;100.00
69766;BME280;57039;48.014;21.384;2023-12-20T01:39:38;100666.88;;;0.76;100.00
69766;BME280;57039;48.014;21.384;2023-12-20T01:40:41;100704.47;;;1.00;100.00
69766;BME280;57039;48.014;21.384;2023-12-20T01:41:44;100710.69;;;0.82;100.00
69766;BME280;57039;48.014;21.384;2023-12-20T01:43:00;100710.75;;;0.79;100.00
69766;BME280;57039;48.014;21.384;2023-12-20T01:44:04;100707.13;;;0.92;100.00
69766;BME280;57039;48.014;21.384;2023-12-20T01:45:07;100709.59;;;1.01;100.00
69766;BME280;57039;48.014;21.384;2023-12-20T01:46:10;100703.66;;;0.95;100.00
69766;BME280;57039;48.014;21.384;2023-12-20T01:47:14;100695.78;;;1.04;100.00
69766;BME280;57039;48.014;21.384;2023-12-20T01:48:19;100691.44;;;1.07;100.00
69766;BME280;57039;48.014;21.384;2023-12-20T01:49:22;100692.47;;;0.93;100.00
69766;BME280;57039;48.014;21.384;2023-12-20T01:50:27;100689.00;;;0.97;100.00
69766;BME280;57039;48.014;21.384;2023-12-20T01:51:30;100691.53;;;1.00;100.00
69766;BME280;57039;48.014;21.384;2023-12-20T01:52:34;100687.31;;;0.94;100.00
69766;BME280;57039;48.014;21.384;2023-12-20T01:53:38;100687.34;;;0.89;100.00
69766;BME280;57039;48.014;21.384;2023-12-20T01:54:42;100680.41;;;0.95;100.00
69766;BME280;57039;48.014;21.384;2023-12-20T01:55:45;100680.31;;;1.02;100.00
69766;BME280;57039;48.014;21.384;2023-12-20T01:56:50;100670.03;;;0.98;100.00
69766;BME280;57039;48.014;21.384;2023-12-20T01:57:53;100672.78;;;0.87;100.00
69766;BME280;57039;48.014;21.384;2023-12-20T01:58:56;100673.63;;;0.86;100.00
69766;BME280;57039;48.014;21.384;2023-12-20T02:00:00;100666.59;;;0.97;100.00
69766;BME280;57039;48.014;21.384;2023-12-20T02:01:03;100667.44;;;0.99;100.00
69766;BME280;57039;48.014;21.384;2023-12-20T02:02:07;100668.22;;;1.06;100.00
69766;BME280;57039;48.014;21.384;2023-12-20T02:03:11;100659.75;;;0.95;100.00
69766;BME280;57039;48.014;21.384;2023-12-20T02:04:15;100652.00;;;0.96;100.00
69766;BME280;57039;48.014;21.384;2023-12-20T02:05:18;100658.97;;;0.86;100.00
69766;BME280;57039;48.014;21.384;2023-12-20T02:06:21;100662.41;;;0.90;100.00
69766;BME280;57039;48.014;21.384;2023-12-20T02:07:26;100621.41;;;0.62;100.00
69766;BME280;57039;48.014;21.384;2023-12-20T02:08:29;100657.25;;;0.90;100.00
69766;BME280;57039;48.014;21.384;2023-12-20T02:09:33;100653.00;;;0.83;100.00
69766;BME280;57039;48.014;21.384;2023-12-20T02:10:36;100644.37;;;0.85;100.00
69766;BME280;57039;48.014;21.384;2023-12-20T02:11:38;100646.75;;;1.02;100.00
69766;BME280;57039;48.014;21.384;2023-12-20T02:12:42;100648.03;;;0.69;100.00
69766;BME280;57039;48.014;21.384;2023-12-20T02:13:44;100636.66;;;0.84;100.00
69766;BME280;57039;48.014;21.384;2023-12-20T02:14:48;100636.72;;;0.78;100.00
69766;BME280;57039;48.014;21.384;2023-12-20T02:15:52;100635.78;;;0.85;100.00
69766;BME280;57039;48.014;21.384;2023-12-20T02:16:55;100638.22;;;0.94;100.00
69766;BME280;57039;48.014;21.384;2023-12-20T02:17:58;100632.09;;;1.01;100.00
69766;BME280;57039;48.014;21.384;2023-12-20T02:19:04;100632.06;;;1.04;100.00
69766;BME280;57039;48.014;21.384;2023-12-20T02:20:11;100632.06;;;1.04;100.00
69766;BME280;57039;48.014;21.384;2023-12-20T02:21:14;100626.97;;;1.00;100.00
69766;BME280;57039;48.014;21.384;2023-12-20T02:22:17;100634.09;;;0.84;100.00
69766;BME280;57039;48.014;21.384;2023-12-20T02:23:20;100633.25;;;0.82;100.00
69766;BME280;57039;48.014;21.384;2023-12-20T02:24:23;100629.00;;;0.76;100.00
69766;BME280;57039;48.014;21.384;2023-12-20T02:25:26;100631.53;;;0.79;100.00
69766;BME280;57039;48.014;21.384;2023-12-20T02:26:31;100628.97;;;0.79;100.00
69766;BME280;57039;48.014;21.384;2023-12-20T02:27:35;100622.94;;;0.79;100.00
69766;BME280;57039;48.014;21.384;2023-12-20T02:28:38;100629.63;;;0.92;100.00
69766;BME280;57039;48.014;21.384;2023-12-20T02:29:40;100619.22;;;0.98;100.00
69766;BME280;57039;48.014;21.384;2023-12-20T02:30:44;100626.25;;;0.90;100.00
69766;BME280;57039;48.014;21.384;2023-12-20T02:31:47;100590.28;;;0.75;100.00
69766;BME280;57039;48.014;21.384;2023-12-20T02:32:49;100617.47;;;1.02;100.00
69766;BME280;57039;48.014;21.384;2023-12-20T02:33:53;100618.62;;;0.81;100.00
69766;BME280;57039;48.014;21.384;2023-12-20T02:34:56;100617.63;;;0.91;100.00
69766;BME280;57039;48.014;21.384;2023-12-20T02:35:59;100600.38;;;0.91;100.00
69766;BME280;57039;48.014;21.384;2023-12-20T02:37:02;100569.56;;;0.78;100.00
69766;BME280;57039;48.014;21.384;2023-12-20T02:38:05;100583.38;;;0.77;100.00
69766;BME280;57039;48.014;21.384;2023-12-20T02:39:08;100605.47;;;0.99;100.00
69766;BME280;57039;48.014;21.384;2023-12-20T02:40:11;100594.47;;;0.83;100.00
69766;BME280;57039;48.014;21.384;2023-12-20T02:41:15;100597.75;;;0.96;100.00
69766;BME280;57039;48.014;21.384;2023-12-20T02:42:20;100605.47;;;0.99;100.00
69766;BME280;57039;48.014;21.384;2023-12-20T02:43:23;100599.41;;;0.99;100.00
69766;BME280;57039;48.014;21.384;2023-12-20T02:44:26;100596.91;;;0.93;100.00
69766;BME280;57039;48.014;21.384;2023-12-20T02:45:29;100573.84;;;0.82;100.00
69766;BME280;57039;48.014;21.384;2023-12-20T02:46:32;100590.13;;;0.87;100.00
69766;BME280;57039;48.014;21.384;2023-12-20T02:47:35;100588.41;;;0.87;100.00
69766;BME280;57039;48.014;21.384;2023-12-20T02:48:38;100587.25;;;1.08;100.00
69766;BME280;57039;48.014;21.384;2023-12-20T02:49:41;100590.72;;;1.04;100.00
69766;BME280;57039;48.014;21.384;2023-12-20T02:50:46;100593.25;;;1.07;100.00
69766;BME280;57039;48.014;21.384;2023-12-20T02:51:50;100573.94;;;0.76;100.00
69766;BME280;57039;48.014;21.384;2023-12-20T02:52:53;100577.44;;;0.70;100.00
69766;BME280;57039;48.014;21.384;2023-12-20T02:53:56;100579.94;;;0.76;100.00
69766;BME280;57039;48.014;21.384;2023-12-20T02:54:59;100584.03;;;0.91;100.00
69766;BME280;57039;48.014;21.384;2023-12-20T02:56:02;100580.47;;;0.98;100.00
69766;BME280;57039;48.014;21.384;2023-12-20T02:57:06;100582.06;;;1.07;100.00
69766;BME280;57039;48.014;21.384;2023-12-20T02:58:09;100566.66;;;1.01;100.00
69766;BME280;57039;48.014;21.384;2023-12-20T02:59:12;100571.22;;;0.85;100.00
69766;BME280;57039;48.014;21.384;2023-12-20T03:00:15;100574.81;;;0.73;100.00
69766;BME280;57039;48.014;21.384;2023-12-20T03:01:18;100566.09;;;0.82;100.00
69766;BME280;57039;48.014;21.384;2023-12-20T03:02:21;100568.78;;;0.74;100.00
69766;BME280;57039;48.014;21.384;2023-12-20T03:03:23;100563.56;;;0.77;100.00
69766;BME280;57039;48.014;21.384;2023-12-20T03:04:26;100561.81;;;0.81;100.00
69766;BME280;57039;48.014;21.384;2023-12-20T03:05:29;100562.59;;;0.86;100.00
69766;BME280;57039;48.014;21.384;2023-12-20T03:06:32;100554.91;;;0.81;100.00
69766;BME280;57039;48.014;21.384;2023-12-20T03:07:36;100556.13;;;0.57;100.00
69766;BME280;57039;48.014;21.384;2023-12-20T03:08:40;100551.59;;;0.72;100.00
69766;BME280;57039;48.014;21.384;2023-12-20T03:09:43;100548.19;;;0.68;100.00
69766;BME280;57039;48.014;21.384;2023-12-20T03:11:06;100547.44;;;0.61;100.00
69766;BME280;57039;48.014;21.384;2023-12-20T03:12:09;100553.66;;;0.48;100.00
69766;BME280;57039;48.014;21.384;2023-12-20T03:13:12;100555.41;;;0.46;100.00
69766;BME280;57039;48.014;21.384;2023-12-20T03:14:15;100551.97;;;0.45;100.00
69766;BME280;57039;48.014;21.384;2023-12-20T03:15:20;100550.34;;;0.35;100.00
69766;BME280;57039;48.014;21.384;2023-12-20T03:16:30;100552.00;;;0.42;100.00
69766;BME280;57039;48.014;21.384;2023-12-20T03:17:36;100521.84;;;0.46;100.00
69766;BME280;57039;48.014;21.384;2023-12-20T03:18:40;100552.56;;;0.64;100.00
69766;BME280;57039;48.014;21.384;2023-12-20T03:19:43;100546.44;;;0.72;100.00
69766;BME280;57039;48.014;21.384;2023-12-20T03:20:45;100554.88;;;0.84;100.00
69766;BME280;57039;48.014;21.384;2023-12-20T03:21:50;100557.41;;;0.87;100.00
69766;BME280;57039;48.014;21.384;2023-12-20T03:22:53;100547.94;;;0.86;100.00
69766;BME280;57039;48.014;21.384;2023-12-20T03:23:57;100552.37;;;0.77;100.00
69766;BME280;57039;48.014;21.384;2023-12-20T03:25:00;100545.50;;;0.79;100.00
69766;BME280;57039;48.014;21.384;2023-12-20T03:26:03;100545.44;;;0.82;100.00
69766;BME280;57039;48.014;21.384;2023-12-20T03:27:11;100511.25;;;0.64;100.00
69766;BME280;57039;48.014;21.384;2023-12-20T03:28:15;100539.66;;;0.64;100.00
69766;BME280;57039;48.014;21.384;2023-12-20T03:29:22;100523.38;;;0.61;100.00
69766;BME280;57039;48.014;21.384;2023-12-20T03:30:25;100533.53;;;0.72;100.00
69766;BME280;57039;48.014;21.384;2023-12-20T03:31:27;100537.75;;;0.77;100.00
69766;BME280;57039;48.014;21.384;2023-12-20T03:32:30;100539.47;;;0.77;100.00
69766;BME280;57039;48.014;21.384;2023-12-20T03:33:33;100523.19;;;0.72;100.00
69766;BME280;57039;48.014;21.384;2023-12-20T03:34:37;100534.94;;;0.93;100.00
69766;BME280;57039;48.014;21.384;2023-12-20T03:35:40;100534.84;;;0.99;100.00
69766;BME280;57039;48.014;21.384;2023-12-20T03:36:44;100527.19;;;0.94;100.00
69766;BME280;57039;48.014;21.384;2023-12-20T03:37:46;100532.25;;;0.99;100.00
69766;BME280;57039;48.014;21.384;2023-12-20T03:38:49;100535.72;;;0.99;100.00
69766;BME280;57039;48.014;21.384;2023-12-20T03:39:52;100524.69;;;0.88;100.00
69766;BME280;57039;48.014;21.384;2023-12-20T03:40:55;100535.69;;;1.01;100.00
69766;BME280;57039;48.014;21.384;2023-12-20T03:41:58;100539.25;;;0.92;100.00
69766;BME280;57039;48.014;21.384;2023-12-20T03:43:01;100546.16;;;0.91;100.00
69766;BME280;57039;48.014;21.384;2023-12-20T03:44:04;100549.53;;;0.97;100.00
69766;BME280;57039;48.014;21.384;2023-12-20T03:45:08;100547.78;;;0.97;100.00
69766;BME280;57039;48.014;21.384;2023-12-20T03:46:10;100546.84;;;1.03;100.00
69766;BME280;57039;48.014;21.384;2023-12-20T03:47:14;100547.88;;;0.91;100.00
69766;BME280;57039;48.014;21.384;2023-12-20T03:48:17;100535.03;;;0.88;100.00
69766;BME280;57039;48.014;21.384;2023-12-20T03:49:19;100545.31;;;0.91;100.00
69766;BME280;57039;48.014;21.384;2023-12-20T03:50:23;100547.00;;;0.92;100.00
69766;BME280;57039;48.014;21.384;2023-12-20T03:51:26;100542.78;;;0.86;100.00
69766;BME280;57039;48.014;21.384;2023-12-20T03:52:28;100540.97;;;0.93;100.00
69766;BME280;57039;48.014;21.384;2023-12-20T03:53:31;100544.41;;;0.92;100.00
69766;BME280;57039;48.014;21.384;2023-12-20T03:54:35;100541.81;;;0.94;100.00
69766;BME280;57039;48.014;21.384;2023-12-20T03:55:38;100518.97;;;0.69;100.00
69766;BME280;57039;48.014;21.384;2023-12-20T03:56:41;100535.03;;;0.88;100.00
69766;BME280;57039;48.014;21.384;2023-12-20T03:57:44;100528.06;;;0.93;100.00
69766;BME280;57039;48.014;21.384;2023-12-20T03:58:47;100517.72;;;0.93;100.00
69766;BME280;57039;48.014;21.384;2023-12-20T03:59:50;100527.06;;;1.00;100.00
69766;BME280;57039;48.014;21.384;2023-12-20T04:00:53;100523.59;;;1.03;100.00
69766;BME280;57039;48.014;21.384;2023-12-20T04:01:56;100519.28;;;1.03;100.00
69766;BME280;57039;48.014;21.384;2023-12-20T04:02:59;100522.75;;;1.02;100.00
69766;BME280;57039;48.014;21.384;2023-12-20T04:04:02;100489.72;;;0.67;100.00
69766;BME280;57039;48.014;21.384;2023-12-20T04:05:06;100521.34;;;0.80;100.00
69766;BME280;57039;48.014;21.384;2023-12-20T04:06:09;100518.13;;;0.65;100.00
69766;BME280;57039;48.014;21.384;2023-12-20T04:07:13;100518.03;;;0.72;100.00
69766;BME280;57039;48.014;21.384;2023-12-20T04:08:15;100520.56;;;0.76;100.00
69766;BME280;57039;48.014;21.384;2023-12-20T04:09:18;100521.44;;;0.74;100.00
69766;BME280;57039;48.014;21.384;2023-12-20T04:10:21;100525.00;;;0.65;100.00
69766;BME280;57039;48.014;21.384;2023-12-20T04:11:24;100522.56;;;0.57;100.00
69766;BME280;57039;48.014;21.384;2023-12-20T04:12:28;100525.84;;;0.67;100.00
69766;BME280;57039;48.014;21.384;2023-12-20T04:13:31;100517.97;;;0.75;100.00
69766;BME280;57039;48.014;21.384;2023-12-20T04:14:35;100526.66;;;0.71;100.00
69766;BME280;57039;48.014;21.384;2023-12-20T04:15:37;100518.13;;;0.65;100.00
69766;BME280;57039;48.014;21.384;2023-12-20T04:16:41;100526.69;;;0.69;100.00
69766;BME280;57039;48.014;21.384;2023-12-20T04:17:48;100520.66;;;0.68;100.00
69766;BME280;57039;48.014;21.384;2023-12-20T04:18:52;100496.19;;;0.35;100.00
69766;BME280;57039;48.014;21.384;2023-12-20T04:19:55;100517.53;;;0.47;100.00
69766;BME280;57039;48.014;21.384;2023-12-20T04:20:58;100512.28;;;0.54;100.00
69766;BME280;57039;48.014;21.384;2023-12-20T04:22:01;100508.09;;;0.45;100.00
69766;BME280;57039;48.014;21.384;2023-12-20T04:23:07;100508.91;;;0.48;100.00
69766;BME280;57039;48.014;21.384;2023-12-20T04:24:10;100508.84;;;0.51;100.00
69766;BME280;57039;48.014;21.384;2023-12-20T04:25:13;100512.31;;;0.50;100.00
69766;BME280;57039;48.014;21.384;2023-12-20T04:26:16;100510.47;;;0.59;100.00
69766;BME280;57039;48.014;21.384;2023-12-20T04:27:18;100502.50;;;0.75;100.00
69766;BME280;57039;48.014;21.384;2023-12-20T04:28:22;100497.28;;;0.79;100.00
69766;BME280;57039;48.014;21.384;2023-12-20T04:29:24;100498.13;;;0.81;100.00
69766;BME280;57039;48.014;21.384;2023-12-20T04:30:27;100498.03;;;0.87;100.00
69766;BME280;57039;48.014;21.384;2023-12-20T04:31:30;100497.97;;;0.90;100.00
69766;BME280;57039;48.014;21.384;2023-12-20T04:32:33;100479.16;;;0.82;100.00
69766;BME280;57039;48.014;21.384;2023-12-20T04:33:36;100451.88;;;0.64;100.00
69766;BME280;57039;48.014;21.384;2023-12-20T04:34:39;100503.09;;;0.94;100.00
69766;BME280;57039;48.014;21.384;2023-12-20T04:35:42;100496.09;;;0.99;100.00
69766;BME280;57039;48.014;21.384;2023-12-20T04:36:45;100503.00;;;1.00;100.00
69766;BME280;57039;48.014;21.384;2023-12-20T04:37:48;100499.50;;;1.02;100.00
69766;BME280;57039;48.014;21.384;2023-12-20T04:38:53;100485.75;;;1.02;100.00
69766;BME280;57039;48.014;21.384;2023-12-20T04:39:56;100506.31;;;1.06;100.00
69766;BME280;57039;48.014;21.384;2023-12-20T04:40:58;100498.81;;;0.91;100.00
69766;BME280;57039;48.014;21.384;2023-12-20T04:42:01;100502.25;;;0.93;100.00
69766;BME280;57039;48.014;21.384;2023-12-20T04:43:04;100501.25;;;1.00;100.00
69766;BME280;57039;48.014;21.384;2023-12-20T04:44:07;100470.50;;;0.83;100.00
69766;BME280;57039;48.014;21.384;2023-12-20T04:45:10;100501.19;;;1.03;100.00
69766;BME280;57039;48.014;21.384;2023-12-20T04:46:15;100462.78;;;0.83;100.00
69766;BME280;57039;48.014;21.384;2023-12-20T04:47:18;100509.75;;;1.07;100.00
69766;BME280;57039;48.014;21.384;2023-12-20T04:48:21;100482.44;;;0.92;100.00
69766;BME280;57039;48.014;21.384;2023-12-20T04:49:24;100512.19;;;1.16;100.00
69766;BME280;57039;48.014;21.384;2023-12-20T04:50:28;100508.81;;;1.12;100.00
69766;BME280;57039;48.014;21.384;2023-12-20T04:51:33;100514.84;;;1.11;100.00
69766;BME280;57039;48.014;21.384;2023-12-20T04:52:37;100514.06;;;1.08;100.00
69766;BME280;57039;48.014;21.384;2023-12-20T04:53:40;100512.28;;;1.10;100.00
69766;BME280;57039;48.014;21.384;2023-12-20T04:54:43;100507.22;;;1.04;100.00
69766;BME280;57039;48.014;21.384;2023-12-20T04:55:46;100502.84;;;1.07;100.00
69766;BME280;57039;48.014;21.384;2023-12-20T04:56:49;100504.47;;;1.13;100.00
69766;BME280;57039;48.014;21.384;2023-12-20T04:57:52;100493.59;;;0.94;100.00
69766;BME280;57039;48.014;21.384;2023-12-20T04:58:55;100491.75;;;1.02;100.00
69766;BME280;57039;48.014;21.384;2023-12-20T04:59:58;100467.81;;;0.91;100.00
69766;BME280;57039;48.014;21.384;2023-12-20T05:01:03;100492.47;;;1.10;100.00
69766;BME280;57039;48.014;21.384;2023-12-20T05:02:08;100493.25;;;1.16;100.00
69766;BME280;57039;48.014;21.384;2023-12-20T05:03:11;100490.72;;;1.12;100.00
69766;BME280;57039;48.014;21.384;2023-12-20T05:04:14;100487.28;;;1.10;100.00
69766;BME280;57039;48.014;21.384;2023-12-20T05:05:17;100467.69;;;0.99;100.00
69766;BME280;57039;48.014;21.384;2023-12-20T05:06:20;100454.03;;;0.92;100.00
69766;BME280;57039;48.014;21.384;2023-12-20T05:07:23;100499.31;;;1.13;100.00
69766;BME280;57039;48.014;21.384;2023-12-20T05:08:26;100488.13;;;1.12;100.00
69766;BME280;57039;48.014;21.384;2023-12-20T05:09:29;100484.66;;;1.13;100.00
69766;BME280;57039;48.014;21.384;2023-12-20T05:10:32;100488.13;;;1.12;100.00
69766;BME280;57039;48.014;21.384;2023-12-20T05:11:35;100489.03;;;1.10;100.00
69766;BME280;57039;48.014;21.384;2023-12-20T05:12:38;100488.22;;;1.08;100.00
69766;BME280;57039;48.014;21.384;2023-12-20T05:13:40;100476.22;;;1.05;100.00
69766;BME280;57039;48.014;21.384;2023-12-20T05:14:52;100441.22;;;0.87;100.00
69766;BME280;57039;48.014;21.384;2023-12-20T05:15:55;100478.69;;;1.11;100.00
69766;BME280;57039;48.014;21.384;2023-12-20T05:16:58;100472.62;;;1.14;100.00
69766;BME280;57039;48.014;21.384;2023-12-20T05:18:01;100481.22;;;1.14;100.00
69766;BME280;57039;48.014;21.384;2023-12-20T05:19:04;100466.63;;;1.10;100.00
69766;BME280;57039;48.014;21.384;2023-12-20T05:20:10;100480.25;;;1.20;100.00
69766;BME280;57039;48.014;21.384;2023-12-20T05:21:13;100476.91;;;1.15;100.00
69766;BME280;57039;48.014;21.384;2023-12-20T05:22:16;100479.62;;;1.06;100.00
69766;BME280;57039;48.014;21.384;2023-12-20T05:23:20;100481.37;;;1.05;100.00
69766;BME280;57039;48.014;21.384;2023-12-20T05:24:23;100473.53;;;1.10;100.00
69766;BME280;57039;48.014;21.384;2023-12-20T05:25:25;100471.94;;;1.01;100.00
69766;BME280;57039;48.014;21.384;2023-12-20T05:26:29;100476.16;;;1.08;100.00
69766;BME280;57039;48.014;21.384;2023-12-20T05:27:33;100472.69;;;1.09;100.00